createdAt,value
2024-01-16T00:02:18.408Z,1.33
2024-01-16T00:04:45.153Z,1.36
2024-01-16T00:07:11.887Z,1.37
2024-01-16T00:09:38.524Z,1.40
2024-01-16T00:12:05.521Z,1.34
2024-01-16T00:14:35.388Z,1.34
2024-01-16T00:17:02.145Z,1.40
2024-01-16T00:19:28.755Z,1.41
2024-01-16T00:21:55.271Z,1.37
2024-01-16T00:24:21.881Z,1.41
2024-01-16T00:26:48.712Z,1.37
2024-01-16T00:29:15.317Z,1.37
2024-01-16T00:31:41.888Z,1.40
2024-01-16T00:34:08.953Z,1.39
2024-01-16T00:36:35.566Z,1.37
2024-01-16T00:39:03.883Z,1.40
2024-01-16T00:41:30.485Z,1.40
2024-01-16T00:43:57.139Z,1.36
2024-01-16T00:46:23.729Z,1.34
2024-01-16T00:48:50.371Z,1.34
2024-01-16T00:51:17.049Z,1.29
2024-01-16T00:53:44.829Z,1.31
2024-01-16T00:56:13.650Z,1.30
2024-01-16T01:00:38.261Z,1.31
2024-01-16T01:03:05.406Z,1.30
2024-01-16T01:05:32.150Z,1.29
2024-01-16T01:07:59.205Z,1.24
2024-01-16T01:10:25.998Z,1.27
2024-01-16T01:12:54.425Z,1.22
2024-01-16T01:15:22.112Z,1.16
2024-01-16T01:17:52.433Z,1.19
2024-01-16T01:20:20.563Z,1.27
2024-01-16T01:22:47.280Z,1.26
2024-01-16T01:25:14.133Z,1.29
2024-01-16T01:27:41.139Z,1.27
2024-01-16T01:30:12.113Z,1.20
2024-01-16T01:32:39.701Z,1.26
2024-01-16T01:35:07.388Z,1.27
2024-01-16T01:37:33.932Z,1.31
2024-01-16T01:40:00.461Z,1.23
2024-01-16T01:42:27.076Z,1.34
2024-01-16T01:44:53.757Z,1.29
2024-01-16T01:47:20.980Z,1.26
2024-01-16T01:49:47.953Z,1.27
2024-01-16T01:52:14.717Z,1.29
2024-01-16T01:54:42.151Z,1.29
2024-01-16T01:57:09.911Z,1.22
2024-01-16T01:59:37.071Z,1.29
2024-01-16T02:02:06.142Z,1.27
2024-01-16T02:04:33.086Z,1.17
2024-01-16T02:07:00.294Z,1.23
2024-01-16T02:09:27.010Z,1.19
2024-01-16T02:11:53.648Z,1.23
2024-01-16T02:14:20.169Z,1.23
2024-01-16T02:16:46.773Z,1.24
2024-01-16T02:19:13.561Z,1.29
2024-01-16T02:21:41.924Z,1.24
2024-01-16T02:24:11.206Z,1.26
2024-01-16T02:26:38.543Z,1.20
2024-01-16T02:29:05.756Z,1.09
2024-01-16T02:31:33.839Z,1.19
2024-01-16T02:34:01.501Z,1.06
2024-01-16T02:36:30.078Z,1.06
2024-01-16T02:38:56.773Z,1.06
2024-01-16T02:41:23.790Z,1.02
2024-01-16T02:43:50.476Z,1.03
2024-01-16T02:46:17.055Z,0.92
2024-01-16T02:48:44.468Z,0.97
2024-01-16T02:51:11.436Z,0.99
2024-01-16T02:53:38.136Z,1.00
2024-01-16T02:56:04.914Z,1.06
2024-01-16T02:58:34.289Z,1.03
2024-01-16T03:01:01.190Z,0.97
2024-01-16T03:03:27.875Z,0.99
2024-01-16T03:05:54.601Z,1.02
2024-01-16T03:08:21.252Z,0.99
2024-01-16T03:10:48.038Z,0.95
2024-01-16T03:13:14.759Z,0.97
2024-01-16T03:15:42.101Z,0.96
2024-01-16T03:18:08.681Z,0.95
2024-01-16T03:20:35.449Z,0.96
2024-01-16T03:23:02.191Z,0.93
2024-01-16T03:25:28.761Z,0.93
2024-01-16T03:27:55.334Z,0.92
2024-01-16T03:30:23.248Z,0.89
2024-01-16T03:32:49.941Z,0.86
2024-01-16T03:35:16.738Z,0.91
2024-01-16T03:37:43.357Z,0.86
2024-01-16T03:40:10.721Z,0.91
2024-01-16T03:42:37.220Z,0.95
2024-01-16T03:45:04.158Z,0.95
2024-01-16T03:47:30.782Z,0.95
2024-01-16T03:49:57.308Z,0.96
2024-01-16T03:52:24.130Z,0.95
2024-01-16T03:54:50.635Z,0.96
2024-01-16T03:57:17.195Z,1.02
2024-01-16T03:59:43.762Z,0.96
2024-01-16T04:02:10.357Z,1.00
2024-01-16T04:04:36.898Z,0.97
2024-01-16T04:07:03.581Z,0.96
2024-01-16T04:09:30.339Z,0.92
2024-01-16T04:11:57.188Z,0.97
2024-01-16T04:14:23.809Z,1.00
2024-01-16T04:16:50.641Z,0.95
2024-01-16T04:19:17.287Z,0.99
2024-01-16T04:21:43.883Z,0.97
2024-01-16T04:24:10.412Z,0.89
2024-01-16T04:26:39.090Z,0.95
2024-01-16T04:29:06.273Z,0.88
2024-01-16T04:31:40.060Z,0.93
2024-01-16T04:34:06.916Z,0.85
2024-01-16T04:36:33.783Z,0.79
2024-01-16T04:39:01.192Z,0.88
2024-01-16T04:41:28.795Z,0.82
2024-01-16T04:43:55.408Z,0.79
2024-01-16T04:46:22.167Z,0.76
2024-01-16T04:48:49.110Z,0.83
2024-01-16T04:51:15.803Z,0.82
2024-01-16T04:53:42.449Z,0.89
2024-01-16T04:56:09.085Z,0.89
2024-01-16T04:58:37.573Z,0.88
2024-01-16T05:01:04.143Z,0.89
2024-01-16T05:03:30.706Z,0.91
2024-01-16T05:05:58.058Z,0.93
2024-01-16T05:08:25.509Z,0.88
2024-01-16T05:10:52.249Z,0.86
2024-01-16T05:13:18.965Z,0.83
2024-01-16T05:15:45.511Z,0.79
2024-01-16T05:18:12.116Z,0.82
2024-01-16T05:20:38.890Z,0.79
2024-01-16T05:23:05.496Z,0.71
2024-01-16T05:25:32.525Z,0.62
2024-01-16T05:27:59.049Z,0.62
2024-01-16T05:30:25.600Z,0.54
2024-01-16T05:32:53.333Z,0.64
2024-01-16T05:35:21.234Z,0.60
2024-01-16T05:37:48.931Z,0.64
2024-01-16T05:40:15.585Z,0.62
2024-01-16T05:42:42.183Z,0.65
2024-01-16T05:45:09.582Z,0.73
2024-01-16T05:47:36.160Z,0.65
2024-01-16T05:50:02.848Z,0.69
2024-01-16T05:52:29.486Z,0.72
2024-01-16T05:54:58.570Z,0.75
2024-01-16T05:57:25.161Z,0.75
2024-01-16T05:59:54.971Z,0.73
2024-01-16T06:02:21.672Z,0.75
2024-01-16T06:04:48.316Z,0.73
2024-01-16T06:07:14.990Z,0.85
2024-01-16T06:09:41.987Z,0.78
2024-01-16T06:12:09.130Z,0.78
2024-01-16T06:14:35.984Z,0.76
2024-01-16T06:17:04.435Z,0.85
2024-01-16T06:19:31.220Z,0.81
2024-01-16T06:21:58.046Z,0.81
2024-01-16T06:24:24.559Z,0.81
2024-01-16T06:26:51.169Z,0.81
2024-01-16T06:29:24.920Z,0.81
2024-01-16T06:31:58.492Z,0.85
2024-01-16T06:34:25.230Z,0.89
2024-01-16T06:36:51.966Z,0.86
2024-01-16T06:39:18.660Z,0.86
2024-01-16T06:41:45.300Z,0.83
2024-01-16T06:44:11.936Z,0.85
2024-01-16T06:46:38.462Z,0.85
2024-01-16T06:49:05.111Z,0.86
2024-01-16T06:51:31.890Z,0.89
2024-01-16T06:53:58.597Z,0.95
2024-01-16T06:56:25.880Z,0.97
2024-01-16T06:58:52.398Z,0.95
2024-01-16T07:01:22.127Z,0.97
2024-01-16T07:03:48.788Z,0.96
2024-01-16T07:06:16.050Z,1.06
2024-01-16T07:08:42.757Z,1.00
2024-01-16T07:11:13.934Z,0.99
2024-01-16T07:13:41.992Z,1.04
2024-01-16T07:16:12.655Z,1.04
2024-01-16T07:18:40.728Z,1.04
2024-01-16T07:21:18.569Z,1.04
2024-01-16T07:23:45.648Z,1.04
2024-01-16T07:26:12.522Z,1.03
2024-01-16T07:28:39.248Z,1.04
2024-01-16T07:32:36.382Z,0.96
2024-01-16T07:35:04.341Z,0.97
2024-01-16T07:37:31.310Z,1.02
2024-01-16T07:39:57.916Z,1.04
2024-01-16T07:42:24.494Z,1.06
2024-01-16T07:44:52.549Z,1.02
2024-01-16T07:47:19.285Z,1.02
2024-01-16T07:49:45.880Z,1.07
2024-01-16T07:52:13.474Z,1.09
2024-01-16T07:54:40.102Z,1.06
2024-01-16T07:57:07.537Z,1.04
2024-01-16T07:59:34.352Z,1.00
2024-01-16T08:02:01.095Z,1.03
2024-01-16T08:04:27.685Z,1.04
2024-01-16T08:06:54.417Z,1.04
2024-01-16T08:09:21.356Z,1.03
2024-01-16T08:11:48.508Z,1.09
2024-01-16T08:14:15.300Z,1.00
2024-01-16T08:16:41.919Z,1.02
2024-01-16T08:19:08.987Z,1.09
2024-01-16T08:21:35.751Z,1.06
2024-01-16T08:24:03.413Z,1.04
2024-01-16T08:26:30.197Z,0.92
2024-01-16T08:28:56.907Z,0.99
2024-01-16T08:31:23.458Z,0.93
2024-01-16T08:33:52.423Z,1.03
2024-01-16T08:36:21.166Z,1.09
2024-01-16T08:38:47.890Z,1.07
2024-01-16T08:41:14.645Z,1.00
2024-01-16T08:43:41.214Z,1.02
2024-01-16T08:46:10.277Z,1.07
2024-01-16T08:48:37.480Z,1.04
2024-01-16T08:51:08.694Z,1.00
2024-01-16T08:53:35.775Z,1.09
2024-01-16T08:56:02.409Z,1.10
2024-01-16T08:58:28.940Z,1.17
2024-01-16T09:00:55.727Z,1.20
2024-01-16T09:03:22.306Z,1.10
2024-01-16T09:05:48.940Z,1.19
2024-01-16T09:08:15.803Z,1.40
2024-01-16T09:10:42.499Z,1.52
2024-01-16T09:13:10.388Z,1.64
2024-01-16T09:15:37.000Z,1.92
2024-01-16T09:18:03.894Z,2.15
2024-01-16T09:20:30.511Z,1.74
2024-01-16T09:22:57.083Z,1.54
2024-01-16T09:25:26.054Z,1.47
2024-01-16T09:27:52.641Z,1.33
2024-01-16T09:30:19.610Z,1.47
2024-01-16T09:32:46.676Z,1.48
2024-01-16T09:35:13.478Z,1.43
2024-01-16T09:37:41.080Z,1.23
2024-01-16T09:40:08.659Z,1.29
2024-01-16T09:42:35.362Z,1.26
2024-01-16T09:45:05.744Z,1.19
2024-01-16T09:47:39.790Z,1.24
2024-01-16T09:50:07.076Z,1.36
2024-01-16T09:52:34.105Z,1.24
2024-01-16T09:55:01.051Z,1.26
2024-01-16T09:57:29.417Z,1.37
2024-01-16T09:59:58.865Z,1.24
2024-01-16T10:02:25.650Z,1.31
2024-01-16T10:04:52.631Z,1.26
2024-01-16T10:07:21.978Z,1.23
2024-01-16T10:09:48.724Z,1.22
2024-01-16T10:12:15.911Z,1.31
2024-01-16T10:14:44.786Z,1.20
2024-01-16T10:17:16.955Z,1.20
2024-01-16T10:19:52.440Z,1.23
2024-01-16T10:22:25.853Z,1.10
2024-01-16T10:25:05.868Z,1.29
2024-01-16T10:27:32.961Z,1.19
2024-01-16T10:30:00.261Z,1.24
2024-01-16T10:32:36.953Z,1.19
2024-01-16T10:35:05.451Z,1.29
2024-01-16T10:37:45.103Z,1.19
2024-01-16T10:40:15.587Z,1.41
2024-01-16T10:42:42.298Z,1.52
2024-01-16T10:45:09.011Z,1.57
2024-01-16T10:47:38.403Z,1.61
2024-01-16T10:50:07.255Z,1.70
2024-01-16T10:52:34.998Z,2.02
2024-01-16T10:55:05.557Z,2.33
2024-01-16T10:57:35.542Z,2.44
2024-01-16T11:00:09.467Z,2.90
2024-01-16T11:02:46.095Z,2.88
2024-01-16T11:05:14.486Z,2.44
2024-01-16T11:07:42.564Z,2.53
2024-01-16T11:10:10.972Z,2.64
2024-01-16T11:12:42.715Z,2.78
2024-01-16T11:15:13.562Z,2.33
2024-01-16T11:17:41.167Z,2.10
2024-01-16T11:20:29.399Z,2.01
2024-01-16T11:23:03.092Z,1.88
2024-01-16T11:25:35.779Z,2.23
2024-01-16T11:28:14.458Z,1.98
2024-01-16T11:30:42.198Z,1.83
2024-01-16T11:33:35.280Z,1.91
2024-01-16T11:36:02.844Z,1.91
2024-01-16T11:38:33.705Z,1.82
2024-01-16T11:41:00.365Z,1.91
2024-01-16T11:43:32.836Z,1.71
2024-01-16T11:46:00.329Z,1.86
2024-01-16T11:48:27.237Z,1.91
2024-01-16T11:50:55.049Z,1.99
2024-01-16T11:53:42.604Z,2.26
2024-01-16T11:56:31.204Z,1.92
2024-01-16T11:59:44.241Z,2.56
2024-01-16T12:02:21.421Z,3.16
2024-01-16T12:04:57.732Z,2.70
2024-01-16T12:07:24.612Z,2.70
2024-01-16T12:09:51.193Z,2.33
2024-01-16T12:12:19.607Z,2.39
2024-01-16T12:14:56.081Z,2.36
2024-01-16T12:17:22.998Z,2.08
2024-01-16T12:19:50.849Z,2.39
2024-01-16T12:22:22.700Z,2.20
2024-01-16T12:24:49.556Z,2.54
2024-01-16T12:27:16.962Z,2.16
2024-01-16T12:29:43.869Z,2.32
2024-01-16T12:32:11.400Z,2.58
2024-01-16T12:34:51.371Z,2.58
2024-01-16T12:37:18.250Z,2.28
2024-01-16T12:39:44.956Z,1.98
2024-01-16T12:42:13.090Z,1.95
2024-01-16T12:44:40.038Z,1.91
2024-01-16T12:47:06.608Z,2.05
2024-01-16T12:49:33.454Z,2.32
2024-01-16T12:52:19.670Z,2.85
2024-01-16T12:54:46.440Z,2.53
2024-01-16T12:57:18.972Z,2.71
2024-01-16T12:59:45.837Z,2.68
2024-01-16T13:02:21.289Z,2.32
2024-01-16T13:04:47.991Z,2.36
2024-01-16T13:07:19.288Z,2.98
2024-01-16T13:09:45.911Z,3.36
2024-01-16T13:12:21.720Z,3.32
2024-01-16T13:14:48.318Z,3.42
2024-01-16T13:17:15.072Z,2.44
2024-01-16T13:19:43.225Z,2.65
2024-01-16T13:22:09.941Z,3.16
2024-01-16T13:24:37.211Z,2.90
2024-01-16T13:27:05.557Z,2.95
2024-01-16T13:29:36.644Z,2.70
2024-01-16T13:32:03.333Z,2.40
2024-01-16T13:34:30.407Z,1.97
2024-01-16T13:37:14.946Z,2.16
2024-01-16T13:39:43.325Z,2.09
2024-01-16T13:42:10.025Z,2.33
2024-01-16T13:44:36.681Z,2.81
2024-01-16T13:47:08.767Z,3.25
2024-01-16T13:49:39.009Z,3.57
2024-01-16T13:52:05.923Z,3.56
2024-01-16T13:54:32.712Z,3.43
2024-01-16T13:57:06.217Z,3.40
2024-01-16T13:59:35.796Z,3.36
2024-01-16T14:02:04.287Z,3.55
2024-01-16T14:04:31.058Z,4.25
2024-01-16T14:07:10.870Z,3.80
2024-01-16T14:09:42.596Z,3.91
2024-01-16T14:12:10.442Z,3.95
2024-01-16T14:14:37.204Z,3.99
2024-01-16T14:17:04.016Z,4.11
2024-01-16T14:19:32.252Z,4.09
2024-01-16T14:21:59.591Z,3.95
2024-01-16T14:24:26.668Z,3.36
2024-01-16T14:26:53.509Z,3.42
2024-01-16T14:29:20.456Z,3.99
2024-01-16T14:31:50.566Z,4.11
2024-01-16T14:34:19.264Z,3.15
2024-01-16T14:36:47.031Z,3.16
2024-01-16T14:39:19.387Z,2.73
2024-01-16T14:41:47.023Z,3.23
2024-01-16T14:44:14.111Z,2.94
2024-01-16T14:46:48.598Z,2.92
2024-01-16T14:49:17.408Z,3.22
2024-01-16T14:51:44.651Z,2.62
2024-01-16T14:54:11.285Z,2.73
2024-01-16T14:56:37.959Z,2.62
2024-01-16T14:59:05.018Z,2.62
2024-01-16T15:01:31.904Z,2.57
2024-01-16T15:03:59.262Z,2.58
2024-01-16T15:06:28.003Z,2.49
2024-01-16T15:08:55.504Z,2.68
2024-01-16T15:11:23.254Z,2.81
2024-01-16T15:13:50.834Z,2.71
2024-01-16T15:16:18.174Z,2.34
2024-01-16T15:18:45.324Z,2.12
2024-01-16T15:21:12.161Z,2.33
2024-01-16T15:23:38.881Z,1.92
2024-01-16T15:26:06.095Z,1.58
2024-01-16T15:28:34.063Z,1.65
2024-01-16T15:31:07.898Z,1.68
2024-01-16T15:33:38.016Z,1.75
2024-01-16T15:36:05.420Z,1.68
2024-01-16T15:38:32.442Z,1.64
2024-01-16T15:40:59.881Z,1.37
2024-01-16T15:43:26.521Z,1.26
2024-01-16T15:45:53.132Z,1.37
2024-01-16T15:48:19.841Z,1.04
2024-01-16T15:50:46.798Z,1.06
2024-01-16T15:53:17.056Z,1.19
2024-01-16T15:55:44.183Z,1.09
2024-01-16T15:58:11.446Z,1.06
2024-01-16T16:00:38.459Z,1.20
2024-01-16T16:03:06.493Z,1.10
2024-01-16T16:05:33.445Z,1.10
2024-01-16T16:08:00.417Z,0.99
2024-01-16T16:10:28.460Z,0.86
2024-01-16T16:12:55.265Z,0.66
2024-01-16T16:15:23.137Z,0.68
2024-01-16T16:17:50.317Z,0.71
2024-01-16T16:20:17.392Z,0.66
2024-01-16T16:22:46.654Z,0.72
2024-01-16T16:25:13.981Z,0.78
2024-01-16T16:27:40.731Z,0.75
2024-01-16T16:30:08.118Z,0.83
2024-01-16T16:32:34.965Z,0.79
2024-01-16T16:35:01.622Z,0.72
2024-01-16T16:37:28.169Z,0.81
2024-01-16T16:39:55.213Z,0.75
2024-01-16T16:42:21.887Z,0.76
2024-01-16T16:44:48.644Z,0.64
2024-01-16T16:47:16.798Z,0.62
2024-01-16T16:49:43.613Z,0.68
2024-01-16T16:52:10.325Z,0.76
2024-01-16T16:54:36.926Z,0.68
2024-01-16T16:57:03.875Z,0.75
2024-01-16T16:59:31.264Z,0.83
2024-01-16T17:01:59.321Z,0.57
2024-01-16T17:04:26.127Z,0.48
2024-01-16T17:06:55.464Z,0.37
2024-01-16T17:09:22.678Z,0.40
2024-01-16T17:11:49.643Z,0.30
2024-01-16T17:14:16.818Z,0.24
2024-01-16T17:16:44.524Z,0.11
2024-01-16T17:19:12.119Z,0.15
2024-01-16T17:21:40.401Z,0.27
2024-01-16T17:24:07.626Z,0.24
2024-01-16T17:26:35.712Z,0.25
2024-01-16T17:29:02.604Z,0.37
2024-01-16T17:31:29.491Z,0.18
2024-01-16T17:33:57.341Z,0.20
2024-01-16T17:36:25.253Z,0.34
2024-01-16T17:38:57.091Z,0.28
2024-01-16T17:41:27.514Z,0.24
2024-01-16T17:43:55.114Z,0.41
2024-01-16T17:46:22.194Z,0.28
2024-01-16T17:48:49.254Z,0.14
2024-01-16T17:51:16.045Z,0.13
2024-01-16T17:53:44.765Z,0.11
2024-01-16T17:56:13.789Z,0.15
2024-01-16T17:58:40.558Z,0.17
2024-01-16T18:01:12.360Z,0.09
2024-01-16T18:03:43.696Z,0.04
2024-01-16T18:06:12.933Z,0.15
2024-01-16T18:08:39.689Z,0.10
2024-01-16T18:11:07.098Z,0.15
2024-01-16T18:13:35.244Z,-0.17
2024-01-16T18:16:07.023Z,-0.41
2024-01-16T18:18:34.325Z,-0.49
2024-01-16T18:21:01.358Z,-0.49
2024-01-16T18:23:28.087Z,-0.55
2024-01-16T18:25:56.797Z,-0.61
2024-01-16T18:28:26.098Z,-0.69
2024-01-16T18:30:53.122Z,-0.77
2024-01-16T18:33:20.317Z,-0.85
2024-01-16T18:35:47.166Z,-0.89
2024-01-16T18:38:15.050Z,-0.92
2024-01-16T18:40:42.006Z,-0.93
2024-01-16T18:43:08.877Z,-1.03
2024-01-16T18:45:35.422Z,-0.92
2024-01-16T18:48:02.765Z,-1.00
2024-01-16T18:50:30.957Z,-1.07
2024-01-16T18:52:58.313Z,-1.11
2024-01-16T18:57:38.340Z,-1.16
2024-01-16T19:00:14.869Z,-1.17
2024-01-16T19:02:46.799Z,-1.08
2024-01-16T19:05:14.536Z,-1.03
2024-01-16T19:07:42.245Z,-1.01
2024-01-16T19:10:17.452Z,-1.04
2024-01-16T19:12:47.271Z,-1.11
2024-01-16T19:15:19.318Z,-1.11
2024-01-16T19:17:51.657Z,-1.01
2024-01-16T19:20:22.994Z,-0.92
2024-01-16T19:22:55.993Z,-1.03
2024-01-16T19:25:26.921Z,-1.14
2024-01-16T19:27:53.964Z,-1.03
2024-01-16T19:30:21.646Z,-1.08
2024-01-16T19:32:49.966Z,-1.10
2024-01-16T19:35:18.318Z,-1.27
2024-01-16T19:37:45.824Z,-1.04
2024-01-16T19:40:14.165Z,-1.11
2024-01-16T19:42:41.646Z,-1.10
2024-01-16T19:45:10.712Z,-1.26
2024-01-16T19:47:40.619Z,-1.27
2024-01-16T19:50:19.061Z,-1.33
2024-01-16T19:52:51.157Z,-1.37
2024-01-16T19:55:25.340Z,-1.43
2024-01-16T19:57:53.183Z,-1.26
2024-01-16T20:00:21.213Z,-1.30
2024-01-16T20:02:48.381Z,-1.43
2024-01-16T20:05:17.110Z,-1.48
2024-01-16T20:07:44.766Z,-1.44
2024-01-16T20:10:15.258Z,-1.31
2024-01-16T20:12:46.949Z,-1.28
2024-01-16T20:15:16.560Z,-1.34
2024-01-16T20:17:44.924Z,-1.37
2024-01-16T20:20:14.237Z,-1.44
2024-01-16T20:22:41.462Z,-1.52
2024-01-16T20:25:09.663Z,-1.52
2024-01-16T20:27:36.300Z,-1.59
2024-01-16T20:30:06.510Z,-1.59
2024-01-16T20:32:33.735Z,-1.55
2024-01-16T20:35:00.402Z,-1.52
2024-01-16T20:37:27.639Z,-1.52
2024-01-16T20:39:54.238Z,-1.58
2024-01-16T20:42:20.807Z,-1.52
2024-01-16T20:44:47.554Z,-1.62
2024-01-16T20:47:14.058Z,-1.83
2024-01-16T20:49:40.660Z,-1.72
2024-01-16T20:52:07.310Z,-1.64
2024-01-16T20:54:33.933Z,-1.68
2024-01-16T20:57:00.526Z,-1.74
2024-01-16T20:59:28.145Z,-1.69
2024-01-16T21:01:55.405Z,-1.76
2024-01-16T21:04:22.026Z,-1.72
2024-01-16T21:06:49.269Z,-1.85
2024-01-16T21:09:19.131Z,-1.89
2024-01-16T21:11:45.710Z,-1.82
2024-01-16T21:14:12.365Z,-1.89
2024-01-16T21:16:39.107Z,-1.87
2024-01-16T21:19:06.986Z,-1.93
2024-01-16T21:21:34.078Z,-1.96
2024-01-16T21:24:01.061Z,-1.97
2024-01-16T21:26:27.825Z,-1.99
2024-01-16T21:28:55.535Z,-1.85
2024-01-16T21:31:23.661Z,-2.07
2024-01-16T21:33:50.473Z,-2.20
2024-01-16T21:36:17.190Z,-2.27
2024-01-16T21:38:43.832Z,-2.24
2024-01-16T21:41:10.922Z,-2.26
2024-01-16T21:43:37.598Z,-2.17
2024-01-16T21:46:04.282Z,-2.09
2024-01-16T21:48:33.169Z,-2.20
2024-01-16T21:51:01.614Z,-2.22
2024-01-16T21:53:28.524Z,-2.29
2024-01-16T21:55:55.076Z,-2.18
2024-01-16T21:58:21.628Z,-2.11
2024-01-16T22:00:48.714Z,-2.18
2024-01-16T22:03:15.530Z,-2.24
2024-01-16T22:05:42.351Z,-2.30
2024-01-16T22:08:10.024Z,-2.18
2024-01-16T22:10:40.350Z,-2.18
2024-01-16T22:13:07.229Z,-2.26
2024-01-16T22:15:34.518Z,-2.32
2024-01-16T22:18:01.325Z,-2.23
2024-01-16T22:20:32.955Z,-2.23
2024-01-16T22:23:00.399Z,-2.30
2024-01-16T22:25:27.461Z,-2.18
2024-01-16T22:27:54.146Z,-2.26
2024-01-16T22:30:22.205Z,-2.23
2024-01-16T22:32:48.979Z,-2.43
2024-01-16T22:35:15.878Z,-2.47
2024-01-16T22:37:47.808Z,-2.47
2024-01-16T22:40:15.205Z,-2.43
2024-01-16T22:42:41.878Z,-2.34
2024-01-16T22:45:09.763Z,-2.38
2024-01-16T22:47:40.272Z,-2.47
2024-01-16T22:50:08.793Z,-2.47
2024-01-16T22:52:39.107Z,-2.50
2024-01-16T22:55:06.231Z,-2.68
2024-01-16T22:57:35.530Z,-2.71
2024-01-16T23:00:02.611Z,-2.61
2024-01-16T23:02:30.016Z,-2.60
2024-01-16T23:04:56.841Z,-2.61
2024-01-16T23:07:23.519Z,-2.64
2024-01-16T23:09:50.093Z,-2.62
2024-01-16T23:12:16.829Z,-2.62
2024-01-16T23:14:44.543Z,-2.62
2024-01-16T23:17:13.068Z,-2.61
2024-01-16T23:19:39.781Z,-2.55
2024-01-16T23:22:06.394Z,-2.74
2024-01-16T23:24:32.982Z,-2.75
2024-01-16T23:27:00.179Z,-2.78
2024-01-16T23:29:26.946Z,-2.84
2024-01-16T23:31:53.532Z,-2.81
2024-01-16T23:34:20.156Z,-2.76
2024-01-16T23:36:46.870Z,-2.91
2024-01-16T23:39:16.334Z,-2.99
2024-01-16T23:41:44.143Z,-3.03
2024-01-16T23:44:10.667Z,-3.06
2024-01-16T23:46:39.717Z,-3.06
2024-01-16T23:49:06.882Z,-2.88
2024-01-16T23:51:33.771Z,-2.99
2024-01-16T23:54:03.381Z,-2.96
2024-01-16T23:56:30.236Z,-3.05
2024-01-16T23:58:56.884Z,-2.99
